Time;durP1;ratioP1;P1;durP2;ratioP2;P2;SDS_P1;SDS_P2;PMS_P1;PMS_P2;Temp;Humidity;BMP_temperature;BMP_pressure;BME280_temperature;BME280_humidity;BME280_pressure;Samples;Min_cycle;Max_cycle;Signal;HPM_P1;HPM_P2
2022/01/02 07:13:13;;;;;;;5.97;3.95;;;;;;;;;;6196161;22;20016;-89
2022/01/02 10:15:25;;;;;;;4.45;4.05;;;;;;;;;;6240678;22;20035;-85
2022/01/02 10:18:10;;;;;;;7.57;4.50;;;;;;;;;;6248058;23;20008;-87
2022/01/02 10:20:41;;;;;;;6.90;3.97;;;;;;;;;;6248058;23;20031;-84
2022/01/02 10:23:21;;;;;;;3.78;3.42;;;;;;;;;;6247604;23;20005;-86
2022/01/02 10:25:48;;;;;;;3.88;3.47;;;;;;;;;;6248658;23;20004;-86
2022/01/02 10:28:35;;;;;;;5.30;3.90;;;;;;;;;;6247977;23;20004;-85
2022/01/02 10:31:24;;;;;;;4.28;3.85;;;;;;;;;;6247857;23;20087;-84
2022/01/02 10:33:52;;;;;;;4.43;4.00;;;;;;;;;;6227886;23;20005;-84
2022/01/02 10:36:30;;;;;;;4.55;4.15;;;;;;;;;;6247691;23;19996;-85
2022/01/02 10:39:31;;;;;;;5.07;4.65;;;;;;;;;;6247821;23;20366;-84
2022/01/02 10:41:57;;;;;;;4.20;3.80;;;;;;;;;;6143757;23;20008;-84
2022/01/02 10:44:29;;;;;;;4.65;4.35;;;;;;;;;;6220893;23;20446;-85
2022/01/02 10:47:21;;;;;;;4.32;3.90;;;;;;;;;;6248039;23;20004;-84
2022/01/02 10:49:53;;;;;;;4.43;4.03;;;;;;;;;;6247768;23;20004;-85
2022/01/02 10:52:23;;;;;;;4.30;3.90;;;;;;;;;;6247381;23;20051;-84
2022/01/02 10:54:49;;;;;;;3.97;3.05;;;;;;;;;;6247539;23;20000;-84
2022/01/02 10:57:14;;;;;;;4.78;2.97;;;;;;;;;;6247491;23;20390;-83
2022/01/02 10:59:42;;;;;;;6.47;2.67;;;;;;;;;;6247477;23;20035;-85
2022/01/02 11:02:10;;;;;;;4.35;2.92;;;;;;;;;;6220370;23;20004;-84
2022/01/02 11:04:37;;;;;;;4.60;2.85;;;;;;;;;;6247614;23;20015;-85
2022/01/02 11:07:05;;;;;;;3.58;3.22;;;;;;;;;;6220417;23;20082;-84
2022/01/02 11:09:32;;;;;;;3.45;2.83;;;;;;;;;;6220355;23;20008;-85
2022/01/02 11:11:57;;;;;;;5.93;3.15;;;;;;;;;;6247601;23;19996;-85
2022/01/02 11:14:23;;;;;;;5.65;2.90;;;;;;;;;;6247499;23;20048;-86
2022/01/02 11:16:48;;;;;;;3.28;2.97;;;;;;;;;;6220088;23;20035;-86
2022/01/02 11:19:14;;;;;;;3.75;3.22;;;;;;;;;;6247103;23;20026;-87
2022/01/02 11:21:44;;;;;;;3.90;3.60;;;;;;;;;;6247066;23;20007;-87
2022/01/02 11:24:18;;;;;;;6.57;3.72;;;;;;;;;;6247348;23;20074;-86
2022/01/02 11:26:54;;;;;;;5.40;2.97;;;;;;;;;;6247040;23;20004;-87
2022/01/02 11:29:27;;;;;;;3.30;2.88;;;;;;;;;;6220327;23;20423;-86
2022/01/02 11:31:53;;;;;;;5.53;3.05;;;;;;;;;;6246983;23;20062;-89
2022/01/02 11:34:27;;;;;;;5.57;3.55;;;;;;;;;;6220244;23;20000;-84
2022/01/02 11:37:10;;;;;;;3.45;3.15;;;;;;;;;;6247128;23;20420;-84
2022/01/02 11:40:02;;;;;;;3.67;3.03;;;;;;;;;;6247103;23;20374;-82
2022/01/02 11:42:38;;;;;;;3.58;2.83;;;;;;;;;;6220045;23;20320;-84
2022/01/02 11:45:05;;;;;;;3.22;2.92;;;;;;;;;;6247035;23;20008;-83
2022/01/02 11:47:47;;;;;;;2.97;2.53;;;;;;;;;;6247110;23;20000;-82
2022/01/02 11:50:36;;;;;;;3.10;2.65;;;;;;;;;;6220076;23;20015;-82
2022/01/02 11:53:13;;;;;;;2.83;2.53;;;;;;;;;;6247100;23;20008;-82
2022/01/02 11:55:44;;;;;;;4.05;2.92;;;;;;;;;;6246967;23;20000;-82
2022/01/02 11:58:10;;;;;;;4.40;3.38;;;;;;;;;;6246824;23;20004;-82
2022/01/02 12:00:46;;;;;;;6.18;2.53;;;;;;;;;;6247061;23;20082;-82
2022/01/02 12:03:44;;;;;;;3.10;2.80;;;;;;;;;;6246616;23;20008;-82
2022/01/02 12:06:15;;;;;;;4.03;2.72;;;;;;;;;;6219606;23;20083;-82
2022/01/02 12:08:40;;;;;;;3.00;2.58;;;;;;;;;;6247127;23;20011;-84
2022/01/02 12:11:31;;;;;;;2.67;2.30;;;;;;;;;;6220089;23;20378;-85
2022/01/02 12:14:20;;;;;;;3.05;2.30;;;;;;;;;;6219710;23;20485;-84
2022/01/02 12:16:57;;;;;;;2.88;2.38;;;;;;;;;;6246791;23;20027;-84
2022/01/02 12:19:24;;;;;;;2.45;2.25;;;;;;;;;;6246725;23;20000;-84
2022/01/02 12:22:13;;;;;;;2.70;2.35;;;;;;;;;;6246264;23;20008;-84
2022/01/02 12:24:40;;;;;;;3.65;2.30;;;;;;;;;;6246773;23;20007;-85
2022/01/02 12:27:10;;;;;;;3.50;2.80;;;;;;;;;;6246690;23;20008;-84
2022/01/02 12:29:36;;;;;;;3.15;2.42;;;;;;;;;;6220118;23;20378;-84
2022/01/02 12:32:03;;;;;;;2.80;2.50;;;;;;;;;;6246690;23;20011;-83
2022/01/02 12:34:30;;;;;;;2.53;1.95;;;;;;;;;;6247030;23;20000;-85
2022/01/02 12:36:56;;;;;;;2.35;2.15;;;;;;;;;;6246579;23;20075;-84
2022/01/02 12:39:40;;;;;;;2.47;2.28;;;;;;;;;;6246559;23;20024;-84
2022/01/02 12:42:14;;;;;;;3.83;2.45;;;;;;;;;;6219343;23;20019;-84
2022/01/02 12:44:39;;;;;;;2.80;2.58;;;;;;;;;;6245924;23;20011;-85
2022/01/02 12:47:07;;;;;;;2.50;2.30;;;;;;;;;;6219545;23;20012;-81
2022/01/02 12:49:38;;;;;;;3.65;3.05;;;;;;;;;;6246796;23;20007;-82
2022/01/02 12:52:15;;;;;;;5.22;3.13;;;;;;;;;;6246512;23;20008;-85
2022/01/02 12:54:46;;;;;;;3.53;2.80;;;;;;;;;;6246732;23;20427;-84
2022/01/02 12:57:14;;;;;;;3.63;3.30;;;;;;;;;;6246426;23;19996;-84
2022/01/02 12:59:45;;;;;;;4.15;3.13;;;;;;;;;;6246533;23;19996;-84
2022/01/02 13:02:21;;;;;;;4.50;3.42;;;;;;;;;;6219538;23;20000;-84
2022/01/02 13:05:02;;;;;;;4.97;3.90;;;;;;;;;;6246507;23;20000;-82
2022/01/02 13:07:31;;;;;;;4.82;3.08;;;;;;;;;;6246361;23;19996;-84
2022/01/02 13:10:02;;;;;;;4.95;2.95;;;;;;;;;;6246387;23;20007;-85
2022/01/02 13:12:30;;;;;;;3.90;3.15;;;;;;;;;;6246321;23;20012;-85
2022/01/02 13:15:05;;;;;;;3.70;2.90;;;;;;;;;;6246278;23;20016;-85
2022/01/02 13:17:35;;;;;;;3.38;2.83;;;;;;;;;;6246113;23;20008;-85
2022/01/02 13:20:06;;;;;;;3.58;2.90;;;;;;;;;;6246369;23;20028;-85
2022/01/02 13:22:34;;;;;;;4.85;2.90;;;;;;;;;;6246152;23;20061;-85
2022/01/02 13:25:12;;;;;;;4.30;3.20;;;;;;;;;;6246175;23;20000;-84
2022/01/02 13:27:55;;;;;;;12.30;6.97;;;;;;;;;;6219447;23;20011;-85
2022/01/02 13:30:23;;;;;;;5.05;4.38;;;;;;;;;;6246419;23;20020;-85
2022/01/02 13:32:50;;;;;;;5.57;3.78;;;;;;;;;;6218240;23;20023;-85
2022/01/02 13:35:19;;;;;;;4.88;3.63;;;;;;;;;;6246115;23;20000;-85
2022/01/02 13:37:47;;;;;;;4.40;3.85;;;;;;;;;;6246327;23;20000;-84
2022/01/02 13:40:18;;;;;;;5.82;4.20;;;;;;;;;;6219361;23;20004;-85
2022/01/02 13:42:46;;;;;;;6.10;3.83;;;;;;;;;;6218826;23;20099;-85
2022/01/02 13:45:17;;;;;;;7.05;4.20;;;;;;;;;;6245836;23;19996;-84
2022/01/02 13:47:44;;;;;;;6.97;5.10;;;;;;;;;;6219321;23;20000;-85
2022/01/02 13:50:29;;;;;;;19.52;8.60;;;;;;;;;;6219484;23;20020;-86
2022/01/02 13:53:06;;;;;;;9.30;5.90;;;;;;;;;;6219243;23;20007;-85
2022/01/02 13:55:34;;;;;;;9.60;6.45;;;;;;;;;;6246228;23;20419;-85
2022/01/02 13:58:03;;;;;;;9.27;6.10;;;;;;;;;;6246209;23;20051;-85
2022/01/02 14:00:30;;;;;;;5.60;3.90;;;;;;;;;;6246302;23;20362;-87
2022/01/02 14:02:56;;;;;;;4.47;4.05;;;;;;;;;;6246434;23;20435;-86
2022/01/02 14:05:42;;;;;;;5.00;4.10;;;;;;;;;;6219280;23;20016;-87
2022/01/02 14:08:18;;;;;;;4.80;3.20;;;;;;;;;;6218090;23;20339;-86
2022/01/02 14:10:44;;;;;;;5.45;2.85;;;;;;;;;;6246151;23;20015;-88
2022/01/02 14:13:15;;;;;;;2.88;2.58;;;;;;;;;;6246615;23;20027;-87
2022/01/02 14:15:42;;;;;;;3.78;3.42;;;;;;;;;;6220409;23;20041;-90
2022/01/02 14:18:08;;;;;;;4.18;3.40;;;;;;;;;;6220857;23;20439;-92
2022/01/02 14:20:35;;;;;;;9.65;7.28;;;;;;;;;;6223083;23;20466;-88
2022/01/02 14:23:05;;;;;;;4.85;3.58;;;;;;;;;;6219287;23;20174;-85
2022/01/02 14:25:31;;;;;;;4.88;3.95;;;;;;;;;;6246406;23;20000;-86
2022/01/02 14:27:56;;;;;;;7.20;4.78;;;;;;;;;;6246335;23;20458;-86
2022/01/02 14:30:23;;;;;;;5.20;4.00;;;;;;;;;;6248073;23;20050;-84
2022/01/02 14:32:50;;;;;;;5.40;3.55;;;;;;;;;;6247868;23;20004;-84
2022/01/02 14:35:17;;;;;;;5.55;3.60;;;;;;;;;;6221097;23;20445;-87
2022/01/02 14:37:45;;;;;;;3.97;2.97;;;;;;;;;;6220596;23;20011;-86
2022/01/02 14:40:11;;;;;;;6.00;3.30;;;;;;;;;;6247780;23;20323;-84
2022/01/02 14:42:38;;;;;;;4.28;3.17;;;;;;;;;;6220885;23;20004;-87
2022/01/02 14:45:04;;;;;;;3.92;3.05;;;;;;;;;;6220845;23;20004;-86
2022/01/02 14:47:31;;;;;;;4.43;2.60;;;;;;;;;;6220664;23;20000;-86
2022/01/02 14:49:57;;;;;;;5.05;3.17;;;;;;;;;;6220756;23;20499;-85
2022/01/02 14:52:23;;;;;;;4.65;3.35;;;;;;;;;;6220521;23;20118;-85
2022/01/02 14:54:49;;;;;;;4.03;2.80;;;;;;;;;;6220852;23;20424;-86
2022/01/02 14:57:14;;;;;;;3.90;2.83;;;;;;;;;;6247660;23;20000;-85
2022/01/02 14:59:40;;;;;;;4.22;2.78;;;;;;;;;;6220830;23;20058;-85
2022/01/02 15:02:06;;;;;;;3.85;2.83;;;;;;;;;;6220603;23;20014;-85
2022/01/02 15:04:31;;;;;;;5.72;3.13;;;;;;;;;;6220554;23;20011;-85
2022/01/02 15:06:57;;;;;;;5.85;2.85;;;;;;;;;;6247716;23;19996;-85
2022/01/02 15:09:22;;;;;;;4.97;2.90;;;;;;;;;;6220790;23;20007;-85
2022/01/02 15:11:49;;;;;;;2.40;2.20;;;;;;;;;;6247600;23;20016;-85
2022/01/02 15:14:14;;;;;;;4.32;2.83;;;;;;;;;;6220493;23;20006;-87
2022/01/02 15:16:41;;;;;;;3.58;2.63;;;;;;;;;;6247173;23;20012;-84
2022/01/02 15:19:07;;;;;;;4.65;2.40;;;;;;;;;;6220412;23;20000;-85
2022/01/02 15:21:32;;;;;;;2.63;2.42;;;;;;;;;;6247314;23;20000;-84
2022/01/02 15:23:58;;;;;;;3.30;2.55;;;;;;;;;;6220478;23;20004;-85
2022/01/02 15:26:23;;;;;;;3.50;3.05;;;;;;;;;;6220343;23;20062;-85
2022/01/02 15:28:49;;;;;;;1.83;1.65;;;;;;;;;;6247383;23;20008;-85
2022/01/02 15:31:18;;;;;;;2.53;1.83;;;;;;;;;;6247026;23;20019;-84
2022/01/02 15:33:45;;;;;;;2.50;2.13;;;;;;;;;;6220440;23;20058;-84
2022/01/02 15:36:11;;;;;;;3.22;1.92;;;;;;;;;;6247144;23;20008;-86
2022/01/02 15:38:37;;;;;;;2.60;2.10;;;;;;;;;;6247376;23;20004;-85
2022/01/02 15:41:03;;;;;;;2.42;2.22;;;;;;;;;;6246947;23;20323;-86
2022/01/02 15:43:28;;;;;;;2.30;2.10;;;;;;;;;;6220048;23;20035;-85
2022/01/02 15:45:54;;;;;;;3.65;2.50;;;;;;;;;;6220126;23;20005;-84
2022/01/02 15:48:21;;;;;;;2.63;2.28;;;;;;;;;;6220195;23;20027;-85
2022/01/02 15:50:48;;;;;;;3.80;2.30;;;;;;;;;;6219932;23;20015;-86
2022/01/02 15:53:14;;;;;;;3.50;2.47;;;;;;;;;;6220222;23;20339;-85
2022/01/02 15:55:40;;;;;;;4.50;2.90;;;;;;;;;;6219671;23;20419;-86
2022/01/02 15:58:05;;;;;;;3.85;2.83;;;;;;;;;;6247009;23;20427;-88
2022/01/02 16:00:31;;;;;;;3.25;2.70;;;;;;;;;;6220143;23;20087;-84
2022/01/02 16:02:58;;;;;;;7.32;4.20;;;;;;;;;;6246862;23;20136;-88
2022/01/02 16:05:24;;;;;;;5.70;4.05;;;;;;;;;;6247103;23;20012;-85
2022/01/02 16:07:49;;;;;;;19.00;10.25;;;;;;;;;;6219942;23;20004;-85
2022/01/02 16:10:14;;;;;;;7.38;4.47;;;;;;;;;;6247125;23;20000;-86
2022/01/02 16:12:40;;;;;;;14.27;7.55;;;;;;;;;;6220053;23;20000;-85
2022/01/02 16:15:06;;;;;;;14.27;7.38;;;;;;;;;;6247887;23;20023;-85
2022/01/02 16:17:33;;;;;;;70.43;28.45;;;;;;;;;;6246311;23;20035;-88
2022/01/02 16:19:58;;;;;;;76.68;43.28;;;;;;;;;;6246687;23;20000;-82
2022/01/02 16:22:24;;;;;;;61.72;43.42;;;;;;;;;;6246449;23;20010;-86
2022/01/02 16:24:49;;;;;;;12.77;8.88;;;;;;;;;;6246613;23;20415;-86
2022/01/02 16:27:15;;;;;;;18.38;12.45;;;;;;;;;;6219725;23;20000;-86
2022/01/02 16:29:40;;;;;;;12.80;8.88;;;;;;;;;;6246666;23;20000;-85
2022/01/02 16:32:06;;;;;;;6.85;4.78;;;;;;;;;;6246242;23;20066;-84
2022/01/02 16:34:31;;;;;;;6.38;3.90;;;;;;;;;;6246625;23;20057;-85
2022/01/02 16:36:57;;;;;;;5.88;4.10;;;;;;;;;;6219795;23;20040;-83
2022/01/02 16:39:22;;;;;;;5.28;4.03;;;;;;;;;;6246640;23;20000;-83
2022/01/02 16:41:50;;;;;;;5.25;4.00;;;;;;;;;;6246440;23;20095;-85
2022/01/02 16:44:15;;;;;;;4.00;3.50;;;;;;;;;;6219535;23;20015;-83
2022/01/02 16:46:41;;;;;;;10.15;5.45;;;;;;;;;;6245470;23;20034;-83
2022/01/02 16:49:08;;;;;;;6.75;3.72;;;;;;;;;;6246165;23;20083;-83
2022/01/02 16:51:34;;;;;;;6.75;4.53;;;;;;;;;;6245954;23;20011;-84
2022/01/02 16:54:00;;;;;;;7.82;5.32;;;;;;;;;;6219202;23;20028;-83
2022/01/02 16:56:26;;;;;;;9.43;5.88;;;;;;;;;;6219486;23;20062;-83
2022/01/02 16:58:52;;;;;;;8.55;4.97;;;;;;;;;;6246192;23;20006;-83
2022/01/02 17:01:20;;;;;;;6.40;4.50;;;;;;;;;;6219102;23;20004;-83
2022/01/02 17:03:45;;;;;;;10.25;4.50;;;;;;;;;;6246535;23;20027;-83
2022/01/02 17:06:11;;;;;;;8.40;4.13;;;;;;;;;;6219422;23;20011;-83
2022/01/02 17:08:36;;;;;;;9.63;4.90;;;;;;;;;;6246515;23;20405;-83
2022/01/02 17:11:02;;;;;;;6.25;4.40;;;;;;;;;;6246357;23;20332;-83
2022/01/02 17:13:27;;;;;;;7.55;4.60;;;;;;;;;;6246343;23;20000;-83
2022/01/02 17:15:53;;;;;;;11.80;7.32;;;;;;;;;;6219124;23;20012;-83
2022/01/02 17:18:19;;;;;;;7.25;4.97;;;;;;;;;;6246236;23;20496;-83
2022/01/02 17:20:45;;;;;;;8.93;4.57;;;;;;;;;;6219071;23;20005;-85
2022/01/02 17:23:13;;;;;;;6.40;4.57;;;;;;;;;;6245895;23;20008;-83
2022/01/02 17:25:38;;;;;;;9.18;5.32;;;;;;;;;;6245952;23;20004;-83
2022/01/02 17:28:04;;;;;;;7.57;4.50;;;;;;;;;;6246166;23;20000;-83
2022/01/02 17:30:29;;;;;;;4.82;4.32;;;;;;;;;;6219193;23;20014;-84
2022/01/02 17:32:56;;;;;;;4.95;4.03;;;;;;;;;;6246130;23;20015;-84
2022/01/02 17:35:22;;;;;;;7.10;4.35;;;;;;;;;;6245889;23;20095;-84
2022/01/02 17:37:48;;;;;;;6.68;4.07;;;;;;;;;;6246210;23;20423;-84
2022/01/02 17:40:17;;;;;;;5.40;4.22;;;;;;;;;;6246074;23;20011;-84
2022/01/02 17:42:43;;;;;;;5.00;4.17;;;;;;;;;;6219055;23;20015;-84
2022/01/02 17:45:08;;;;;;;5.05;3.60;;;;;;;;;;6219174;23;20234;-83
2022/01/02 17:47:34;;;;;;;4.53;3.17;;;;;;;;;;6245788;23;20073;-85
2022/01/02 17:50:00;;;;;;;5.30;4.15;;;;;;;;;;6246117;23;20005;-85
2022/01/02 17:52:25;;;;;;;9.43;4.90;;;;;;;;;;6219212;23;20426;-84
2022/01/02 17:54:51;;;;;;;7.03;4.95;;;;;;;;;;6245981;23;20329;-84
2022/01/02 17:57:16;;;;;;;8.93;5.78;;;;;;;;;;6245797;23;20007;-84
2022/01/02 17:59:42;;;;;;;8.57;4.60;;;;;;;;;;6219123;23;20000;-83
2022/01/02 18:02:08;;;;;;;8.68;5.38;;;;;;;;;;6245955;23;20050;-84
2022/01/02 18:04:34;;;;;;;9.80;5.32;;;;;;;;;;6247988;23;20416;-84
2022/01/02 18:06:59;;;;;;;14.77;6.22;;;;;;;;;;6248028;23;19996;-84
2022/01/02 18:09:31;;;;;;;11.35;6.68;;;;;;;;;;6247919;23;20315;-84
2022/01/02 18:11:56;;;;;;;13.15;7.65;;;;;;;;;;6247828;23;20004;-86
2022/01/02 18:14:22;;;;;;;9.68;6.47;;;;;;;;;;6221025;23;20008;-86
2022/01/02 18:16:48;;;;;;;8.35;6.10;;;;;;;;;;6221284;23;20367;-90
2022/01/02 18:19:14;;;;;;;9.88;5.93;;;;;;;;;;6221364;23;20012;-88
2022/01/02 18:21:48;;;;;;;28.50;12.85;;;;;;;;;;6220767;23;20435;-87
2022/01/02 18:24:19;;;;;;;10.98;6.65;;;;;;;;;;6221065;23;20008;-89
2022/01/02 18:26:45;;;;;;;7.32;4.93;;;;;;;;;;6221146;23;20008;-85
2022/01/02 18:29:12;;;;;;;18.38;9.88;;;;;;;;;;6221176;23;20011;-85
2022/01/02 18:31:38;;;;;;;14.85;12.05;;;;;;;;;;6220837;23;20000;-85
2022/01/02 18:34:04;;;;;;;20.33;15.18;;;;;;;;;;6221105;23;20015;-85
2022/01/02 18:36:30;;;;;;;12.48;9.23;;;;;;;;;;6220871;23;20008;-86
2022/01/02 18:38:56;;;;;;;11.10;9.13;;;;;;;;;;6220905;23;20068;-84
2022/01/02 18:41:21;;;;;;;10.70;7.22;;;;;;;;;;6247572;23;20024;-85
2022/01/02 18:43:46;;;;;;;11.45;7.45;;;;;;;;;;6247936;23;20089;-84
2022/01/02 18:46:12;;;;;;;10.98;7.32;;;;;;;;;;6247776;23;20004;-90
2022/01/02 18:48:38;;;;;;;10.25;6.60;;;;;;;;;;6220752;23;20400;-86
2022/01/02 18:51:04;;;;;;;7.30;5.55;;;;;;;;;;6220890;23;20460;-86
2022/01/02 18:53:30;;;;;;;8.45;5.95;;;;;;;;;;6247520;23;20408;-87
2022/01/02 18:55:57;;;;;;;6.75;5.97;;;;;;;;;;6220671;23;20000;-84
2022/01/02 18:58:23;;;;;;;9.15;6.25;;;;;;;;;;6247345;23;20042;-85
2022/01/02 19:00:49;;;;;;;9.20;7.03;;;;;;;;;;6247549;23;20000;-86
2022/01/02 19:03:15;;;;;;;10.98;7.22;;;;;;;;;;6247331;23;20008;-85
2022/01/02 19:05:40;;;;;;;7.80;5.80;;;;;;;;;;6245938;23;20008;-86
2022/01/02 19:08:06;;;;;;;9.52;6.30;;;;;;;;;;6220650;23;20342;-86
2022/01/02 19:10:32;;;;;;;7.25;5.28;;;;;;;;;;6220561;23;20011;-86
2022/01/02 19:12:57;;;;;;;9.20;8.30;;;;;;;;;;6220666;23;20423;-90
2022/01/02 19:15:23;;;;;;;12.70;8.13;;;;;;;;;;6220503;23;20004;-85
2022/01/02 19:17:49;;;;;;;9.80;6.85;;;;;;;;;;6221046;23;20004;-91
2022/01/02 19:20:15;;;;;;;9.50;6.40;;;;;;;;;;6221640;23;20008;-86
2022/01/02 19:22:44;;;;;;;9.02;6.85;;;;;;;;;;6221870;23;20062;-89
2022/01/02 19:25:10;;;;;;;8.13;6.32;;;;;;;;;;6221638;23;20031;-87
2022/01/02 19:27:36;;;;;;;10.63;7.60;;;;;;;;;;6248497;23;20004;-88
2022/01/02 19:30:04;;;;;;;137.60;63.25;;;;;;;;;;6221317;23;20382;-87
2022/01/02 19:32:29;;;;;;;91.78;43.13;;;;;;;;;;6250368;23;20035;-88
2022/01/02 19:34:55;;;;;;;17.70;10.50;;;;;;;;;;6224255;23;20003;-85
2022/01/02 19:37:21;;;;;;;48.35;23.45;;;;;;;;;;6249735;23;20019;-86
2022/01/02 19:39:48;;;;;;;49.40;24.92;;;;;;;;;;6222207;23;20018;-85
2022/01/02 19:42:15;;;;;;;31.20;14.15;;;;;;;;;;6248627;23;20008;-85
2022/01/02 19:44:41;;;;;;;53.30;23.90;;;;;;;;;;6247686;23;20000;-84
2022/01/02 19:47:08;;;;;;;37.90;16.70;;;;;;;;;;6248304;23;20420;-86
2022/01/02 19:49:35;;;;;;;29.55;14.23;;;;;;;;;;6220543;23;20011;-85
2022/01/02 19:52:00;;;;;;;12.10;7.25;;;;;;;;;;6220867;23;20046;-86
2022/01/02 19:54:26;;;;;;;12.90;8.15;;;;;;;;;;6220678;23;20008;-85
2022/01/02 19:56:51;;;;;;;12.65;9.13;;;;;;;;;;6220719;23;20470;-85
2022/01/02 19:59:17;;;;;;;11.30;8.00;;;;;;;;;;6247003;23;20010;-85
2022/01/02 20:01:43;;;;;;;9.52;7.03;;;;;;;;;;6219761;23;20386;-87
2022/01/02 20:04:08;;;;;;;9.88;8.13;;;;;;;;;;6246954;23;20079;-86
2022/01/02 20:06:34;;;;;;;10.55;6.57;;;;;;;;;;6246969;23;20004;-86
2022/01/02 20:09:00;;;;;;;14.45;7.80;;;;;;;;;;6247228;23;20005;-85
2022/01/02 20:11:26;;;;;;;10.57;7.63;;;;;;;;;;6246897;23;20000;-86
2022/01/02 20:13:52;;;;;;;10.50;7.32;;;;;;;;;;6219961;23;20004;-85
2022/01/02 20:16:20;;;;;;;17.73;11.68;;;;;;;;;;6214638;23;20079;-84
2022/01/02 20:18:46;;;;;;;10.23;8.45;;;;;;;;;;6216498;23;20047;-84
2022/01/02 20:21:13;;;;;;;10.48;8.13;;;;;;;;;;6214512;23;19996;-83
2022/01/02 20:23:39;;;;;;;12.25;9.10;;;;;;;;;;6214410;23;20000;-82
2022/01/02 20:26:06;;;;;;;34.92;23.27;;;;;;;;;;6216136;23;20008;-82
2022/01/02 20:28:31;;;;;;;16.50;10.75;;;;;;;;;;6215998;23;20001;-82
2022/01/02 20:31:00;;;;;;;17.83;12.25;;;;;;;;;;6216131;23;20000;-82
2022/01/02 20:33:27;;;;;;;;;;;;;;;;;;6214915;23;20009;-81
2022/01/02 20:35:53;;;;;;;13.50;8.23;;;;;;;;;;6216265;23;19914;-82
2022/01/02 20:38:21;;;;;;;13.55;8.48;;;;;;;;;;6216603;23;20109;-82
2022/01/02 20:40:47;;;;;;;16.88;9.95;;;;;;;;;;6216848;23;20367;-84
2022/01/02 20:43:22;;;;;;;14.48;8.68;;;;;;;;;;6216473;23;20008;-80
2022/01/02 20:45:47;;;;;;;13.80;8.93;;;;;;;;;;6216374;23;20001;-84
2022/01/02 20:48:13;;;;;;;13.73;8.85;;;;;;;;;;6216228;23;20009;-87
2022/01/02 20:50:45;;;;;;;11.48;8.07;;;;;;;;;;6215287;23;20091;-85
2022/01/02 20:53:11;;;;;;;13.52;8.73;;;;;;;;;;6217246;23;20079;-88
2022/01/02 20:55:37;;;;;;;15.10;9.15;;;;;;;;;;6217249;23;20005;-87
2022/01/02 20:58:06;;;;;;;13.25;9.43;;;;;;;;;;6216004;23;20031;-85
2022/01/02 21:00:34;;;;;;;14.48;9.23;;;;;;;;;;6215852;23;20008;-87
2022/01/02 21:02:59;;;;;;;15.00;10.35;;;;;;;;;;6215878;23;20020;-86
2022/01/02 21:05:28;;;;;;;14.07;10.20;;;;;;;;;;6216242;23;20004;-85
2022/01/02 21:07:53;;;;;;;13.98;9.40;;;;;;;;;;6217764;23;20532;-84
2022/01/02 21:10:23;;;;;;;14.25;10.40;;;;;;;;;;6218330;23;20000;-85
2022/01/02 21:12:49;;;;;;;14.82;10.50;;;;;;;;;;6216866;23;20107;-86
2022/01/02 21:15:16;;;;;;;17.40;10.65;;;;;;;;;;6216223;23;20008;-86
2022/01/02 21:17:42;;;;;;;14.07;10.60;;;;;;;;;;6248761;23;20485;-86
2022/01/02 21:20:14;;;;;;;16.77;11.57;;;;;;;;;;6223364;23;20032;-86
2022/01/02 21:22:41;;;;;;;15.73;11.38;;;;;;;;;;6223941;23;20301;-86
2022/01/02 21:25:11;;;;;;;16.80;11.88;;;;;;;;;;6223889;23;20016;-85
2022/01/02 21:27:36;;;;;;;;;;;;;;;;;;6223074;23;20498;-84
2022/01/02 21:30:09;;;;;;;19.65;13.20;;;;;;;;;;6222227;23;19912;-85
2022/01/02 21:32:36;;;;;;;16.15;12.45;;;;;;;;;;6247751;23;20107;-86
2022/01/02 21:35:03;;;;;;;19.70;12.45;;;;;;;;;;6219852;23;20008;-86
2022/01/02 21:37:29;;;;;;;21.70;14.82;;;;;;;;;;6247146;23;20004;-85
2022/01/02 21:39:55;;;;;;;21.80;15.18;;;;;;;;;;6248811;23;20054;-86
2022/01/02 21:42:23;;;;;;;20.80;13.88;;;;;;;;;;6222085;23;20008;-85
2022/01/02 21:44:49;;;;;;;20.00;14.70;;;;;;;;;;6248563;23;20066;-86
2022/01/02 21:47:17;;;;;;;26.13;17.35;;;;;;;;;;6248139;23;20004;-85
2022/01/02 21:49:43;;;;;;;26.38;17.92;;;;;;;;;;6248301;23;20115;-86
2022/01/02 21:52:09;;;;;;;22.17;15.43;;;;;;;;;;6248072;23;20126;-86
2022/01/02 21:54:38;;;;;;;27.80;17.25;;;;;;;;;;6222204;23;20373;-86
2022/01/02 21:57:03;;;;;;;26.13;17.70;;;;;;;;;;6248556;23;20027;-86
2022/01/02 21:59:29;;;;;;;27.67;17.33;;;;;;;;;;6248448;23;20000;-87
2022/01/02 22:01:59;;;;;;;26.55;17.95;;;;;;;;;;6215765;23;20084;-85
2022/01/02 22:04:27;;;;;;;51.25;30.08;;;;;;;;;;6216610;23;20013;-85
2022/01/02 22:06:56;;;;;;;49.13;29.30;;;;;;;;;;6218248;23;20309;-85
2022/01/02 22:09:23;;;;;;;42.83;26.90;;;;;;;;;;6217840;23;20036;-85
2022/01/02 22:11:49;;;;;;;46.05;28.83;;;;;;;;;;6217426;23;20016;-86
2022/01/02 22:14:15;;;;;;;38.88;25.98;;;;;;;;;;6215934;23;20392;-88
2022/01/02 22:16:40;;;;;;;28.90;21.70;;;;;;;;;;6217927;23;20011;-86
2022/01/02 22:19:06;;;;;;;34.58;25.08;;;;;;;;;;6216560;23;20005;-86
2022/01/02 22:21:32;;;;;;;30.75;21.23;;;;;;;;;;6216036;23;20088;-85
2022/01/02 22:24:04;;;;;;;27.73;21.08;;;;;;;;;;6216037;23;20005;-85
2022/01/02 22:26:39;;;;;;;29.73;20.15;;;;;;;;;;6215471;23;20017;-84
2022/01/02 22:29:06;;;;;;;26.95;19.15;;;;;;;;;;6217210;23;20004;-84
2022/01/02 22:31:35;;;;;;;30.90;21.55;;;;;;;;;;6216133;23;20007;-86
2022/01/02 22:34:02;;;;;;;30.63;20.27;;;;;;;;;;6217510;23;20016;-83
2022/01/02 22:36:28;;;;;;;27.70;18.92;;;;;;;;;;6217397;23;20004;-84
2022/01/02 22:38:53;;;;;;;29.60;19.98;;;;;;;;;;6215335;23;20424;-86
2022/01/02 22:41:19;;;;;;;27.20;18.90;;;;;;;;;;6216826;23;20428;-86
2022/01/02 22:43:44;;;;;;;27.40;19.92;;;;;;;;;;6217492;23;20009;-88
2022/01/02 22:46:11;;;;;;;27.10;19.50;;;;;;;;;;6216337;23;20088;-89
2022/01/02 22:48:38;;;;;;;26.75;18.38;;;;;;;;;;6215656;23;20110;-89
2022/01/02 22:51:07;;;;;;;27.17;19.02;;;;;;;;;;6216593;23;20432;-88
